sensor_id;sensor_type;location;lat;lon;timestamp;temperature;humidity
41533;DHT22;27262;-35.248;149.138;2023-04-03T00:00:23;20.00;70.00
41533;DHT22;27262;-35.248;149.138;2023-04-03T00:02:53;20.00;70.00
41533;DHT22;27262;-35.248;149.138;2023-04-03T00:05:23;20.00;69.80
41533;DHT22;27262;-35.248;149.138;2023-04-03T00:07:54;20.10;69.70
41533;DHT22;27262;-35.248;149.138;2023-04-03T00:10:25;20.10;69.70
41533;DHT22;27262;-35.248;149.138;2023-04-03T00:12:55;20.10;69.60
41533;DHT22;27262;-35.248;149.138;2023-04-03T00:15:25;20.10;69.50
41533;DHT22;27262;-35.248;149.138;2023-04-03T00:17:56;20.10;69.40
41533;DHT22;27262;-35.248;149.138;2023-04-03T00:20:26;20.10;69.40
41533;DHT22;27262;-35.248;149.138;2023-04-03T00:22:57;20.10;69.30
41533;DHT22;27262;-35.248;149.138;2023-04-03T00:25:27;20.10;69.30
41533;DHT22;27262;-35.248;149.138;2023-04-03T00:27:58;20.10;69.30
41533;DHT22;27262;-35.248;149.138;2023-04-03T00:30:28;20.10;69.20
41533;DHT22;27262;-35.248;149.138;2023-04-03T00:32:59;20.20;69.30
41533;DHT22;27262;-35.248;149.138;2023-04-03T00:35:30;20.20;69.20
41533;DHT22;27262;-35.248;149.138;2023-04-03T00:38:01;20.20;69.20
41533;DHT22;27262;-35.248;149.138;2023-04-03T00:40:38;20.20;69.20
41533;DHT22;27262;-35.248;149.138;2023-04-03T00:43:24;20.20;69.20
41533;DHT22;27262;-35.248;149.138;2023-04-03T00:45:57;20.20;69.00
41533;DHT22;27262;-35.248;149.138;2023-04-03T00:48:39;20.20;69.20
41533;DHT22;27262;-35.248;149.138;2023-04-03T00:51:18;20.30;69.20
41533;DHT22;27262;-35.248;149.138;2023-04-03T00:53:56;20.30;69.20
41533;DHT22;27262;-35.248;149.138;2023-04-03T00:56:30;20.30;69.20
41533;DHT22;27262;-35.248;149.138;2023-04-03T00:59:15;20.30;69.20
41533;DHT22;27262;-35.248;149.138;2023-04-03T01:01:46;20.30;69.10
41533;DHT22;27262;-35.248;149.138;2023-04-03T01:04:37;20.30;69.10
41533;DHT22;27262;-35.248;149.138;2023-04-03T01:07:16;20.30;69.10
41533;DHT22;27262;-35.248;149.138;2023-04-03T01:09:48;20.40;69.20
41533;DHT22;27262;-35.248;149.138;2023-04-03T01:12:24;20.40;69.20
41533;DHT22;27262;-35.248;149.138;2023-04-03T01:14:57;20.40;69.20
41533;DHT22;27262;-35.248;149.138;2023-04-03T01:17:48;20.40;69.10
41533;DHT22;27262;-35.248;149.138;2023-04-03T01:25:45;20.40;69.00
41533;DHT22;27262;-35.248;149.138;2023-04-03T01:28:30;20.40;69.10
41533;DHT22;27262;-35.248;149.138;2023-04-03T01:33:47;20.50;69.00
41533;DHT22;27262;-35.248;149.138;2023-04-03T01:36:27;20.50;69.10
41533;DHT22;27262;-35.248;149.138;2023-04-03T01:38:58;20.50;69.00
41533;DHT22;27262;-35.248;149.138;2023-04-03T01:41:29;20.50;69.10
41533;DHT22;27262;-35.248;149.138;2023-04-03T01:43:59;20.50;69.10
41533;DHT22;27262;-35.248;149.138;2023-04-03T01:46:30;20.50;69.20
41533;DHT22;27262;-35.248;149.138;2023-04-03T01:49:01;20.60;69.20
41533;DHT22;27262;-35.248;149.138;2023-04-03T01:51:31;20.50;69.20
41533;DHT22;27262;-35.248;149.138;2023-04-03T01:54:02;20.60;69.30
41533;DHT22;27262;-35.248;149.138;2023-04-03T01:56:33;20.60;69.30
41533;DHT22;27262;-35.248;149.138;2023-04-03T01:59:04;20.60;69.10
41533;DHT22;27262;-35.248;149.138;2023-04-03T02:01:34;20.60;69.20
41533;DHT22;27262;-35.248;149.138;2023-04-03T02:04:05;20.60;69.10
41533;DHT22;27262;-35.248;149.138;2023-04-03T02:06:37;20.70;69.00
41533;DHT22;27262;-35.248;149.138;2023-04-03T02:09:08;20.60;68.90
41533;DHT22;27262;-35.248;149.138;2023-04-03T02:11:38;20.70;68.80
41533;DHT22;27262;-35.248;149.138;2023-04-03T02:14:09;20.70;68.80
41533;DHT22;27262;-35.248;149.138;2023-04-03T02:16:39;20.70;68.70
41533;DHT22;27262;-35.248;149.138;2023-04-03T02:19:10;20.70;68.70
41533;DHT22;27262;-35.248;149.138;2023-04-03T02:21:41;20.70;68.70
41533;DHT22;27262;-35.248;149.138;2023-04-03T02:24:11;20.70;68.60
41533;DHT22;27262;-35.248;149.138;2023-04-03T02:26:42;20.70;68.60
41533;DHT22;27262;-35.248;149.138;2023-04-03T02:29:12;20.70;68.60
41533;DHT22;27262;-35.248;149.138;2023-04-03T02:31:43;20.70;68.60
41533;DHT22;27262;-35.248;149.138;2023-04-03T02:34:13;20.70;68.60
41533;DHT22;27262;-35.248;149.138;2023-04-03T02:36:43;20.80;68.60
41533;DHT22;27262;-35.248;149.138;2023-04-03T02:39:14;20.80;68.60
41533;DHT22;27262;-35.248;149.138;2023-04-03T02:41:45;20.80;68.60
41533;DHT22;27262;-35.248;149.138;2023-04-03T02:44:15;20.80;68.60
41533;DHT22;27262;-35.248;149.138;2023-04-03T02:46:46;20.80;68.50
41533;DHT22;27262;-35.248;149.138;2023-04-03T02:49:16;20.80;68.60
41533;DHT22;27262;-35.248;149.138;2023-04-03T02:51:46;20.90;68.60
41533;DHT22;27262;-35.248;149.138;2023-04-03T02:54:16;20.80;68.50
41533;DHT22;27262;-35.248;149.138;2023-04-03T02:56:47;20.90;68.60
41533;DHT22;27262;-35.248;149.138;2023-04-03T02:59:17;20.80;68.60
41533;DHT22;27262;-35.248;149.138;2023-04-03T03:01:47;20.90;68.70
41533;DHT22;27262;-35.248;149.138;2023-04-03T03:04:18;20.90;68.70
41533;DHT22;27262;-35.248;149.138;2023-04-03T03:06:48;20.90;68.70
41533;DHT22;27262;-35.248;149.138;2023-04-03T03:09:20;20.90;68.80
41533;DHT22;27262;-35.248;149.138;2023-04-03T03:11:50;20.90;68.80
41533;DHT22;27262;-35.248;149.138;2023-04-03T03:14:20;21.00;68.90
41533;DHT22;27262;-35.248;149.138;2023-04-03T03:16:51;20.90;68.80
41533;DHT22;27262;-35.248;149.138;2023-04-03T03:19:21;20.90;68.80
41533;DHT22;27262;-35.248;149.138;2023-04-03T03:21:51;21.00;69.00
41533;DHT22;27262;-35.248;149.138;2023-04-03T03:24:22;21.00;68.90
41533;DHT22;27262;-35.248;149.138;2023-04-03T03:26:52;21.00;68.90
41533;DHT22;27262;-35.248;149.138;2023-04-03T03:29:22;21.00;68.80
41533;DHT22;27262;-35.248;149.138;2023-04-03T03:31:52;21.00;68.80
41533;DHT22;27262;-35.248;149.138;2023-04-03T03:34:23;21.10;68.90
41533;DHT22;27262;-35.248;149.138;2023-04-03T03:36:53;21.10;68.80
41533;DHT22;27262;-35.248;149.138;2023-04-03T03:39:24;21.10;68.60
41533;DHT22;27262;-35.248;149.138;2023-04-03T03:41:54;21.10;68.50
41533;DHT22;27262;-35.248;149.138;2023-04-03T03:44:25;21.10;68.50
41533;DHT22;27262;-35.248;149.138;2023-04-03T03:46:55;21.10;68.50
41533;DHT22;27262;-35.248;149.138;2023-04-03T03:49:26;21.10;68.40
41533;DHT22;27262;-35.248;149.138;2023-04-03T03:51:56;21.10;68.30
41533;DHT22;27262;-35.248;149.138;2023-04-03T03:54:26;21.10;68.30
41533;DHT22;27262;-35.248;149.138;2023-04-03T03:56:56;21.10;68.30
41533;DHT22;27262;-35.248;149.138;2023-04-03T03:59:27;21.10;68.20
41533;DHT22;27262;-35.248;149.138;2023-04-03T04:01:57;21.20;68.20
41533;DHT22;27262;-35.248;149.138;2023-04-03T04:04:27;21.10;68.30
41533;DHT22;27262;-35.248;149.138;2023-04-03T04:06:58;21.10;68.40
41533;DHT22;27262;-35.248;149.138;2023-04-03T04:09:29;21.20;68.50
41533;DHT22;27262;-35.248;149.138;2023-04-03T04:12:04;21.20;68.50
41533;DHT22;27262;-35.248;149.138;2023-04-03T04:14:35;21.20;68.60
41533;DHT22;27262;-35.248;149.138;2023-04-03T04:17:05;21.20;68.60
41533;DHT22;27262;-35.248;149.138;2023-04-03T04:19:36;21.20;68.60
41533;DHT22;27262;-35.248;149.138;2023-04-03T04:22:07;21.30;68.60
41533;DHT22;27262;-35.248;149.138;2023-04-03T04:24:37;21.20;68.50
41533;DHT22;27262;-35.248;149.138;2023-04-03T04:27:07;21.30;68.50
41533;DHT22;27262;-35.248;149.138;2023-04-03T04:29:37;21.30;68.40
41533;DHT22;27262;-35.248;149.138;2023-04-03T04:32:07;21.30;68.40
41533;DHT22;27262;-35.248;149.138;2023-04-03T04:34:38;21.30;68.30
41533;DHT22;27262;-35.248;149.138;2023-04-03T04:37:08;21.30;68.20
41533;DHT22;27262;-35.248;149.138;2023-04-03T04:39:39;21.30;68.20
41533;DHT22;27262;-35.248;149.138;2023-04-03T04:42:09;21.30;68.20
41533;DHT22;27262;-35.248;149.138;2023-04-03T04:44:44;21.30;68.20
41533;DHT22;27262;-35.248;149.138;2023-04-03T04:47:15;21.30;68.10
41533;DHT22;27262;-35.248;149.138;2023-04-03T04:49:46;21.30;68.10
41533;DHT22;27262;-35.248;149.138;2023-04-03T04:52:17;21.30;68.20
41533;DHT22;27262;-35.248;149.138;2023-04-03T04:54:47;21.40;68.20
41533;DHT22;27262;-35.248;149.138;2023-04-03T04:57:17;21.30;68.10
41533;DHT22;27262;-35.248;149.138;2023-04-03T04:59:48;21.40;68.20
41533;DHT22;27262;-35.248;149.138;2023-04-03T05:02:18;21.40;68.20
41533;DHT22;27262;-35.248;149.138;2023-04-03T05:04:48;21.40;68.20
41533;DHT22;27262;-35.248;149.138;2023-04-03T05:07:20;21.40;68.10
41533;DHT22;27262;-35.248;149.138;2023-04-03T05:09:50;21.40;68.10
41533;DHT22;27262;-35.248;149.138;2023-04-03T05:12:20;21.40;68.10
41533;DHT22;27262;-35.248;149.138;2023-04-03T05:14:51;21.40;68.10
41533;DHT22;27262;-35.248;149.138;2023-04-03T05:17:21;21.40;68.10
41533;DHT22;27262;-35.248;149.138;2023-04-03T05:19:51;21.40;68.10
41533;DHT22;27262;-35.248;149.138;2023-04-03T05:22:22;21.40;68.10
41533;DHT22;27262;-35.248;149.138;2023-04-03T05:24:52;21.40;68.10
41533;DHT22;27262;-35.248;149.138;2023-04-03T05:27:23;21.40;68.10
41533;DHT22;27262;-35.248;149.138;2023-04-03T05:29:54;21.40;68.10
41533;DHT22;27262;-35.248;149.138;2023-04-03T05:32:24;21.40;68.20
41533;DHT22;27262;-35.248;149.138;2023-04-03T05:34:56;21.40;68.10
41533;DHT22;27262;-35.248;149.138;2023-04-03T05:37:28;21.40;68.10
41533;DHT22;27262;-35.248;149.138;2023-04-03T05:39:58;21.40;68.10
41533;DHT22;27262;-35.248;149.138;2023-04-03T05:42:29;21.40;68.10
41533;DHT22;27262;-35.248;149.138;2023-04-03T05:44:59;21.40;68.10
41533;DHT22;27262;-35.248;149.138;2023-04-03T05:47:29;21.50;68.20
41533;DHT22;27262;-35.248;149.138;2023-04-03T05:50:00;21.50;68.20
41533;DHT22;27262;-35.248;149.138;2023-04-03T05:52:33;21.50;68.20
41533;DHT22;27262;-35.248;149.138;2023-04-03T05:55:05;21.50;68.40
41533;DHT22;27262;-35.248;149.138;2023-04-03T05:57:36;21.50;68.40
41533;DHT22;27262;-35.248;149.138;2023-04-03T06:00:08;21.50;68.40
41533;DHT22;27262;-35.248;149.138;2023-04-03T06:02:39;21.50;68.40
41533;DHT22;27262;-35.248;149.138;2023-04-03T06:05:10;21.50;68.40
41533;DHT22;27262;-35.248;149.138;2023-04-03T06:07:41;21.50;68.40
41533;DHT22;27262;-35.248;149.138;2023-04-03T06:10:13;21.60;68.50
41533;DHT22;27262;-35.248;149.138;2023-04-03T06:12:44;21.60;68.50
41533;DHT22;27262;-35.248;149.138;2023-04-03T06:15:14;21.60;68.40
41533;DHT22;27262;-35.248;149.138;2023-04-03T06:17:46;21.60;68.40
41533;DHT22;27262;-35.248;149.138;2023-04-03T06:20:17;21.60;68.40
41533;DHT22;27262;-35.248;149.138;2023-04-03T06:22:47;21.60;68.40
41533;DHT22;27262;-35.248;149.138;2023-04-03T06:25:18;21.60;68.30
41533;DHT22;27262;-35.248;149.138;2023-04-03T06:27:49;21.60;68.30
41533;DHT22;27262;-35.248;149.138;2023-04-03T06:30:19;21.60;68.30
41533;DHT22;27262;-35.248;149.138;2023-04-03T06:32:50;21.70;68.40
41533;DHT22;27262;-35.248;149.138;2023-04-03T06:35:21;21.70;68.40
41533;DHT22;27262;-35.248;149.138;2023-04-03T06:37:53;21.70;68.40
41533;DHT22;27262;-35.248;149.138;2023-04-03T06:40:25;21.70;68.30
41533;DHT22;27262;-35.248;149.138;2023-04-03T06:42:56;21.70;68.30
41533;DHT22;27262;-35.248;149.138;2023-04-03T06:45:26;21.70;68.30
41533;DHT22;27262;-35.248;149.138;2023-04-03T06:47:57;21.70;68.30
41533;DHT22;27262;-35.248;149.138;2023-04-03T06:50:27;21.70;68.30
41533;DHT22;27262;-35.248;149.138;2023-04-03T06:52:58;21.80;68.40
41533;DHT22;27262;-35.248;149.138;2023-04-03T06:55:28;21.80;68.50
41533;DHT22;27262;-35.248;149.138;2023-04-03T06:57:59;21.80;68.50
41533;DHT22;27262;-35.248;149.138;2023-04-03T07:00:30;21.80;68.60
41533;DHT22;27262;-35.248;149.138;2023-04-03T07:03:00;21.80;68.50
41533;DHT22;27262;-35.248;149.138;2023-04-03T07:05:31;21.80;68.50
41533;DHT22;27262;-35.248;149.138;2023-04-03T07:08:01;21.80;68.30
41533;DHT22;27262;-35.248;149.138;2023-04-03T07:10:31;21.80;68.10
41533;DHT22;27262;-35.248;149.138;2023-04-03T07:13:02;21.80;68.10
41533;DHT22;27262;-35.248;149.138;2023-04-03T07:15:32;21.70;68.00
41533;DHT22;27262;-35.248;149.138;2023-04-03T07:18:03;21.70;68.10
41533;DHT22;27262;-35.248;149.138;2023-04-03T07:20:35;21.70;68.00
41533;DHT22;27262;-35.248;149.138;2023-04-03T07:23:06;21.70;68.10
41533;DHT22;27262;-35.248;149.138;2023-04-03T07:25:36;21.70;68.10
41533;DHT22;27262;-35.248;149.138;2023-04-03T07:28:07;21.60;68.10
41533;DHT22;27262;-35.248;149.138;2023-04-03T07:30:46;21.60;68.20
41533;DHT22;27262;-35.248;149.138;2023-04-03T07:33:18;21.60;68.20
41533;DHT22;27262;-35.248;149.138;2023-04-03T07:35:49;21.60;68.30
41533;DHT22;27262;-35.248;149.138;2023-04-03T07:38:29;21.60;68.30
41533;DHT22;27262;-35.248;149.138;2023-04-03T07:41:00;21.60;68.30
41533;DHT22;27262;-35.248;149.138;2023-04-03T07:43:30;21.60;68.40
41533;DHT22;27262;-35.248;149.138;2023-04-03T07:46:00;21.50;68.30
41533;DHT22;27262;-35.248;149.138;2023-04-03T07:48:31;21.50;68.20
41533;DHT22;27262;-35.248;149.138;2023-04-03T07:51:02;21.60;68.30
41533;DHT22;27262;-35.248;149.138;2023-04-03T07:53:33;21.60;68.30
41533;DHT22;27262;-35.248;149.138;2023-04-03T07:56:03;21.60;68.20
41533;DHT22;27262;-35.248;149.138;2023-04-03T07:58:34;21.60;68.30
41533;DHT22;27262;-35.248;149.138;2023-04-03T08:01:04;21.50;68.10
41533;DHT22;27262;-35.248;149.138;2023-04-03T08:03:35;21.50;68.10
41533;DHT22;27262;-35.248;149.138;2023-04-03T08:06:08;21.50;68.20
41533;DHT22;27262;-35.248;149.138;2023-04-03T08:08:43;21.50;68.20
41533;DHT22;27262;-35.248;149.138;2023-04-03T08:11:13;21.50;68.20
41533;DHT22;27262;-35.248;149.138;2023-04-03T08:13:44;21.50;68.20
41533;DHT22;27262;-35.248;149.138;2023-04-03T08:16:21;21.50;68.20
41533;DHT22;27262;-35.248;149.138;2023-04-03T08:18:52;21.50;68.20
41533;DHT22;27262;-35.248;149.138;2023-04-03T08:21:22;21.50;68.20
41533;DHT22;27262;-35.248;149.138;2023-04-03T08:23:53;21.50;68.20
41533;DHT22;27262;-35.248;149.138;2023-04-03T08:26:23;21.40;68.10
41533;DHT22;27262;-35.248;149.138;2023-04-03T08:28:56;21.50;68.20
41533;DHT22;27262;-35.248;149.138;2023-04-03T08:31:26;21.50;68.10
41533;DHT22;27262;-35.248;149.138;2023-04-03T08:33:58;21.50;68.10
41533;DHT22;27262;-35.248;149.138;2023-04-03T08:36:29;21.50;68.00
41533;DHT22;27262;-35.248;149.138;2023-04-03T08:39:00;21.50;68.00
41533;DHT22;27262;-35.248;149.138;2023-04-03T08:41:34;21.50;68.10
41533;DHT22;27262;-35.248;149.138;2023-04-03T08:44:15;21.50;68.20
41533;DHT22;27262;-35.248;149.138;2023-04-03T08:49:42;21.50;68.10
41533;DHT22;27262;-35.248;149.138;2023-04-03T08:52:44;21.40;68.10
41533;DHT22;27262;-35.248;149.138;2023-04-03T08:58:21;21.40;68.00
41533;DHT22;27262;-35.248;149.138;2023-04-03T09:03:31;21.40;68.10
41533;DHT22;27262;-35.248;149.138;2023-04-03T09:06:16;21.40;68.10
41533;DHT22;27262;-35.248;149.138;2023-04-03T09:15:18;21.40;67.80
41533;DHT22;27262;-35.248;149.138;2023-04-03T09:18:32;21.40;67.80
41533;DHT22;27262;-35.248;149.138;2023-04-03T09:21:34;21.30;68.00
41533;DHT22;27262;-35.248;149.138;2023-04-03T09:24:09;21.30;68.00
41533;DHT22;27262;-35.248;149.138;2023-04-03T09:27:06;21.30;68.10
41533;DHT22;27262;-35.248;149.138;2023-04-03T09:29:42;21.30;67.80
41533;DHT22;27262;-35.248;149.138;2023-04-03T09:32:35;21.30;68.00
41533;DHT22;27262;-35.248;149.138;2023-04-03T09:43:34;21.30;67.80
41533;DHT22;27262;-35.248;149.138;2023-04-03T09:49:01;21.30;67.60
41533;DHT22;27262;-35.248;149.138;2023-04-03T09:51:36;21.30;67.50
41533;DHT22;27262;-35.248;149.138;2023-04-03T09:57:06;21.30;67.70
41533;DHT22;27262;-35.248;149.138;2023-04-03T09:59:46;21.30;67.80
41533;DHT22;27262;-35.248;149.138;2023-04-03T10:02:38;21.30;67.80
41533;DHT22;27262;-35.248;149.138;2023-04-03T10:05:30;21.40;68.00
41533;DHT22;27262;-35.248;149.138;2023-04-03T10:11:17;21.40;68.10
41533;DHT22;27262;-35.248;149.138;2023-04-03T10:13:56;21.30;68.10
41533;DHT22;27262;-35.248;149.138;2023-04-03T10:17:12;21.30;68.20
41533;DHT22;27262;-35.248;149.138;2023-04-03T10:19:57;21.30;68.40
41533;DHT22;27262;-35.248;149.138;2023-04-03T10:27:54;21.30;68.50
41533;DHT22;27262;-35.248;149.138;2023-04-03T10:52:47;21.30;68.90
41533;DHT22;27262;-35.248;149.138;2023-04-03T10:55:46;21.20;69.00
41533;DHT22;27262;-35.248;149.138;2023-04-03T11:01:37;21.20;69.00
41533;DHT22;27262;-35.248;149.138;2023-04-03T11:04:10;21.20;69.10
41533;DHT22;27262;-35.248;149.138;2023-04-03T11:09:28;21.20;69.00
41533;DHT22;27262;-35.248;149.138;2023-04-03T11:12:14;21.20;69.10
41533;DHT22;27262;-35.248;149.138;2023-04-03T11:14:49;21.20;69.00
41533;DHT22;27262;-35.248;149.138;2023-04-03T11:17:38;21.10;69.10
41533;DHT22;27262;-35.248;149.138;2023-04-03T11:20:42;21.20;69.10
41533;DHT22;27262;-35.248;149.138;2023-04-03T11:23:21;21.20;69.10
41533;DHT22;27262;-35.248;149.138;2023-04-03T11:26:01;21.20;69.20
41533;DHT22;27262;-35.248;149.138;2023-04-03T11:28:36;21.20;69.30
41533;DHT22;27262;-35.248;149.138;2023-04-03T11:36:51;21.10;69.20
41533;DHT22;27262;-35.248;149.138;2023-04-03T11:39:32;21.20;69.20
41533;DHT22;27262;-35.248;149.138;2023-04-03T11:48:05;21.20;69.30
41533;DHT22;27262;-35.248;149.138;2023-04-03T11:50:51;21.10;69.40
41533;DHT22;27262;-35.248;149.138;2023-04-03T11:56:00;21.10;69.30
41533;DHT22;27262;-35.248;149.138;2023-04-03T11:58:35;21.10;69.30
41533;DHT22;27262;-35.248;149.138;2023-04-03T12:04:14;21.10;69.30
41533;DHT22;27262;-35.248;149.138;2023-04-03T12:12:30;21.10;69.40
41533;DHT22;27262;-35.248;149.138;2023-04-03T12:16:02;21.10;70.20
41533;DHT22;27262;-35.248;149.138;2023-04-03T12:18:44;21.10;69.50
41533;DHT22;27262;-35.248;149.138;2023-04-03T12:21:16;21.00;69.50
41533;DHT22;27262;-35.248;149.138;2023-04-03T12:26:30;21.00;69.60
41533;DHT22;27262;-35.248;149.138;2023-04-03T12:29:36;21.00;69.60
41533;DHT22;27262;-35.248;149.138;2023-04-03T12:35:37;21.00;69.60
41533;DHT22;27262;-35.248;149.138;2023-04-03T12:41:23;21.00;69.70
41533;DHT22;27262;-35.248;149.138;2023-04-03T12:43:59;21.00;69.60
41533;DHT22;27262;-35.248;149.138;2023-04-03T12:46:46;21.00;69.80
41533;DHT22;27262;-35.248;149.138;2023-04-03T12:49:38;21.00;69.70
41533;DHT22;27262;-35.248;149.138;2023-04-03T12:52:35;21.00;69.70
41533;DHT22;27262;-35.248;149.138;2023-04-03T12:55:24;21.00;69.70
41533;DHT22;27262;-35.248;149.138;2023-04-03T12:57:55;20.90;69.60
41533;DHT22;27262;-35.248;149.138;2023-04-03T13:00:35;20.90;69.70
41533;DHT22;27262;-35.248;149.138;2023-04-03T13:03:22;20.90;69.60
41533;DHT22;27262;-35.248;149.138;2023-04-03T13:05:57;20.90;69.60
41533;DHT22;27262;-35.248;149.138;2023-04-03T13:08:29;20.90;69.70
41533;DHT22;27262;-35.248;149.138;2023-04-03T13:11:09;20.90;69.70
41533;DHT22;27262;-35.248;149.138;2023-04-03T13:13:55;20.90;69.60
41533;DHT22;27262;-35.248;149.138;2023-04-03T13:16:26;20.90;69.60
41533;DHT22;27262;-35.248;149.138;2023-04-03T13:18:56;20.90;69.70
41533;DHT22;27262;-35.248;149.138;2023-04-03T13:21:45;20.90;69.80
41533;DHT22;27262;-35.248;149.138;2023-04-03T13:24:37;20.90;69.80
41533;DHT22;27262;-35.248;149.138;2023-04-03T13:27:11;20.90;69.80
41533;DHT22;27262;-35.248;149.138;2023-04-03T13:29:42;20.90;69.80
41533;DHT22;27262;-35.248;149.138;2023-04-03T13:32:21;20.90;69.80
41533;DHT22;27262;-35.248;149.138;2023-04-03T13:34:53;20.90;69.70
41533;DHT22;27262;-35.248;149.138;2023-04-03T13:37:30;20.90;69.80
41533;DHT22;27262;-35.248;149.138;2023-04-03T13:40:12;20.90;69.80
41533;DHT22;27262;-35.248;149.138;2023-04-03T13:42:43;20.90;69.70
41533;DHT22;27262;-35.248;149.138;2023-04-03T13:45:21;20.80;69.80
41533;DHT22;27262;-35.248;149.138;2023-04-03T13:48:07;20.80;69.80
41533;DHT22;27262;-35.248;149.138;2023-04-03T13:53:30;20.80;69.70
41533;DHT22;27262;-35.248;149.138;2023-04-03T13:58:36;20.80;69.80
41533;DHT22;27262;-35.248;149.138;2023-04-03T14:01:14;20.80;70.00
41533;DHT22;27262;-35.248;149.138;2023-04-03T14:03:54;20.80;70.00
41533;DHT22;27262;-35.248;149.138;2023-04-03T14:06:25;20.80;69.90
41533;DHT22;27262;-35.248;149.138;2023-04-03T14:08:55;20.80;70.00
41533;DHT22;27262;-35.248;149.138;2023-04-03T14:11:29;20.80;70.00
41533;DHT22;27262;-35.248;149.138;2023-04-03T14:14:10;20.80;70.00
41533;DHT22;27262;-35.248;149.138;2023-04-03T14:16:47;20.80;70.00
41533;DHT22;27262;-35.248;149.138;2023-04-03T14:19:28;20.70;70.00
41533;DHT22;27262;-35.248;149.138;2023-04-03T14:22:00;20.70;70.10
41533;DHT22;27262;-35.248;149.138;2023-04-03T14:24:31;20.70;70.10
41533;DHT22;27262;-35.248;149.138;2023-04-03T14:27:02;20.70;70.00
41533;DHT22;27262;-35.248;149.138;2023-04-03T14:29:32;20.70;70.00
41533;DHT22;27262;-35.248;149.138;2023-04-03T14:32:02;20.70;70.00
41533;DHT22;27262;-35.248;149.138;2023-04-03T14:34:42;20.70;70.10
41533;DHT22;27262;-35.248;149.138;2023-04-03T14:37:16;20.70;70.10
41533;DHT22;27262;-35.248;149.138;2023-04-03T14:39:47;20.70;70.10
41533;DHT22;27262;-35.248;149.138;2023-04-03T14:42:21;20.70;70.10
41533;DHT22;27262;-35.248;149.138;2023-04-03T14:44:52;20.70;70.10
41533;DHT22;27262;-35.248;149.138;2023-04-03T14:47:27;20.70;70.10
41533;DHT22;27262;-35.248;149.138;2023-04-03T14:50:04;20.70;70.10
41533;DHT22;27262;-35.248;149.138;2023-04-03T14:52:36;20.70;70.10
41533;DHT22;27262;-35.248;149.138;2023-04-03T14:55:08;20.70;70.10
41533;DHT22;27262;-35.248;149.138;2023-04-03T14:57:38;20.70;70.10
41533;DHT22;27262;-35.248;149.138;2023-04-03T15:00:15;20.70;70.10
41533;DHT22;27262;-35.248;149.138;2023-04-03T15:02:47;20.70;70.10
41533;DHT22;27262;-35.248;149.138;2023-04-03T15:05:18;20.70;70.20
41533;DHT22;27262;-35.248;149.138;2023-04-03T15:07:54;20.70;70.20
41533;DHT22;27262;-35.248;149.138;2023-04-03T15:10:30;20.70;70.20
41533;DHT22;27262;-35.248;149.138;2023-04-03T15:13:00;20.60;70.90
41533;DHT22;27262;-35.248;149.138;2023-04-03T15:15:31;20.60;70.10
41533;DHT22;27262;-35.248;149.138;2023-04-03T15:18:01;20.60;70.10
41533;DHT22;27262;-35.248;149.138;2023-04-03T15:20:31;20.60;70.10
41533;DHT22;27262;-35.248;149.138;2023-04-03T15:23:03;20.60;70.10
41533;DHT22;27262;-35.248;149.138;2023-04-03T15:25:34;20.60;70.10
41533;DHT22;27262;-35.248;149.138;2023-04-03T15:28:05;20.60;70.10
41533;DHT22;27262;-35.248;149.138;2023-04-03T15:30:37;20.60;70.10
41533;DHT22;27262;-35.248;149.138;2023-04-03T15:33:09;20.60;70.90
41533;DHT22;27262;-35.248;149.138;2023-04-03T15:35:40;20.60;70.10
41533;DHT22;27262;-35.248;149.138;2023-04-03T15:38:11;20.60;70.10
41533;DHT22;27262;-35.248;149.138;2023-04-03T15:40:41;20.60;70.10
41533;DHT22;27262;-35.248;149.138;2023-04-03T15:43:13;20.60;70.10
41533;DHT22;27262;-35.248;149.138;2023-04-03T15:45:44;20.60;70.10
41533;DHT22;27262;-35.248;149.138;2023-04-03T15:48:15;20.60;70.10
41533;DHT22;27262;-35.248;149.138;2023-04-03T15:50:45;20.60;70.10
41533;DHT22;27262;-35.248;149.138;2023-04-03T15:53:15;20.60;70.20
41533;DHT22;27262;-35.248;149.138;2023-04-03T15:55:46;20.60;70.10
41533;DHT22;27262;-35.248;149.138;2023-04-03T15:58:17;20.60;70.10
41533;DHT22;27262;-35.248;149.138;2023-04-03T16:00:47;20.60;70.10
41533;DHT22;27262;-35.248;149.138;2023-04-03T16:03:20;20.60;70.10
41533;DHT22;27262;-35.248;149.138;2023-04-03T16:05:52;20.60;70.00
41533;DHT22;27262;-35.248;149.138;2023-04-03T16:08:23;20.50;69.90
41533;DHT22;27262;-35.248;149.138;2023-04-03T16:10:56;20.50;69.90
41533;DHT22;27262;-35.248;149.138;2023-04-03T16:13:27;20.50;69.90
41533;DHT22;27262;-35.248;149.138;2023-04-03T16:15:57;20.50;69.80
41533;DHT22;27262;-35.248;149.138;2023-04-03T16:18:28;20.50;69.80
41533;DHT22;27262;-35.248;149.138;2023-04-03T16:20:59;20.50;69.80
41533;DHT22;27262;-35.248;149.138;2023-04-03T16:23:30;20.50;69.80
41533;DHT22;27262;-35.248;149.138;2023-04-03T16:26:00;20.50;69.70
41533;DHT22;27262;-35.248;149.138;2023-04-03T16:28:31;20.50;69.70
41533;DHT22;27262;-35.248;149.138;2023-04-03T16:31:01;20.50;69.70
41533;DHT22;27262;-35.248;149.138;2023-04-03T16:33:32;20.50;69.70
41533;DHT22;27262;-35.248;149.138;2023-04-03T16:36:04;20.50;69.60
41533;DHT22;27262;-35.248;149.138;2023-04-03T16:38:35;20.50;69.60
41533;DHT22;27262;-35.248;149.138;2023-04-03T16:41:05;20.50;69.70
41533;DHT22;27262;-35.248;149.138;2023-04-03T16:43:36;20.50;69.60
41533;DHT22;27262;-35.248;149.138;2023-04-03T16:46:06;20.50;69.60
41533;DHT22;27262;-35.248;149.138;2023-04-03T16:48:36;20.40;69.60
41533;DHT22;27262;-35.248;149.138;2023-04-03T16:51:07;20.40;69.60
41533;DHT22;27262;-35.248;149.138;2023-04-03T16:53:37;20.40;69.50
41533;DHT22;27262;-35.248;149.138;2023-04-03T16:56:07;20.40;69.50
41533;DHT22;27262;-35.248;149.138;2023-04-03T16:58:37;20.40;69.50
41533;DHT22;27262;-35.248;149.138;2023-04-03T17:01:16;20.40;69.50
41533;DHT22;27262;-35.248;149.138;2023-04-03T17:03:47;20.40;69.40
41533;DHT22;27262;-35.248;149.138;2023-04-03T17:06:20;20.40;69.50
41533;DHT22;27262;-35.248;149.138;2023-04-03T17:08:52;20.40;69.50
41533;DHT22;27262;-35.248;149.138;2023-04-03T17:11:23;20.40;69.50
41533;DHT22;27262;-35.248;149.138;2023-04-03T17:13:53;20.40;69.50
41533;DHT22;27262;-35.248;149.138;2023-04-03T17:16:25;20.40;69.50
41533;DHT22;27262;-35.248;149.138;2023-04-03T17:18:56;20.40;69.40